Time;durP1;ratioP1;P1;durP2;ratioP2;P2;SDS_P1;SDS_P2;PMS_P1;PMS_P2;Temp;Humidity;BMP_temperature;BMP_pressure;BME280_temperature;BME280_humidity;BME280_pressure;Samples;Min_cycle;Max_cycle;Signal;HPM_P1;HPM_P2
2022/09/29 00:01:08;;;;;;;5.53;2.28;;;8.70;99.90;;;;;;5039898;28;20084;-78
2022/09/29 00:03:34;;;;;;;2.97;1.95;;;8.60;99.90;;;;;;5045906;28;20112;-77
2022/09/29 00:06:00;;;;;;;3.25;2.20;;;8.60;99.90;;;;;;5047565;28;20044;-78
2022/09/29 00:08:28;;;;;;;3.28;1.98;;;8.70;99.90;;;;;;5041677;28;20487;-79
2022/09/29 00:10:53;;;;;;;4.47;2.53;;;8.60;99.90;;;;;;5049309;28;20534;-78
2022/09/29 00:13:20;;;;;;;2.95;2.22;;;8.60;99.90;;;;;;5041959;28;20032;-77
2022/09/29 00:15:55;;;;;;;5.32;2.58;;;8.60;99.90;;;;;;5044806;28;20029;-77
2022/09/29 00:18:20;;;;;;;3.20;2.00;;;8.70;99.90;;;;;;5044600;28;20040;-78
2022/09/29 00:21:02;;;;;;;3.70;2.45;;;8.70;99.90;;;;;;5046308;28;20154;-78
2022/09/29 00:23:29;;;;;;;4.38;2.28;;;8.80;99.90;;;;;;5033494;28;20503;-78
2022/09/29 00:26:16;;;;;;;3.67;2.08;;;8.90;99.90;;;;;;5039289;28;20031;-78
2022/09/29 00:28:46;;;;;;;3.05;2.05;;;9.10;99.90;;;;;;5035552;28;20484;-78
2022/09/29 00:31:12;;;;;;;3.78;1.88;;;9.20;99.90;;;;;;5037674;28;20037;-78
2022/09/29 00:33:38;;;;;;;2.83;2.15;;;9.10;99.90;;;;;;5037744;28;20035;-79
2022/09/29 00:36:07;;;;;;;3.15;2.33;;;9.10;99.90;;;;;;5046706;28;20038;-78
2022/09/29 00:38:33;;;;;;;4.47;2.63;;;9.00;99.90;;;;;;5039248;28;20377;-78
2022/09/29 00:40:59;;;;;;;3.00;2.22;;;9.10;99.90;;;;;;5045851;28;20025;-78
2022/09/29 00:43:50;;;;;;;4.03;2.13;;;8.90;99.90;;;;;;5044646;28;20393;-78
2022/09/29 00:46:22;;;;;;;5.05;2.35;;;8.60;99.90;;;;;;5046215;28;20040;-78
2022/09/29 00:48:48;;;;;;;3.78;2.40;;;8.40;99.90;;;;;;5045851;28;20395;-79
2022/09/29 00:51:14;;;;;;;3.75;2.50;;;8.30;99.90;;;;;;5040141;28;20026;-78
2022/09/29 00:53:41;;;;;;;7.45;2.33;;;8.20;99.90;;;;;;5048773;28;20040;-78
2022/09/29 00:56:11;;;;;;;3.40;2.22;;;8.10;99.90;;;;;;5039528;28;20020;-79
2022/09/29 00:58:39;;;;;;;3.75;2.20;;;8.00;99.90;;;;;;5043591;28;20083;-79
2022/09/29 01:01:05;;;;;;;3.03;2.15;;;7.80;99.90;;;;;;5035896;28;20112;-78
2022/09/29 01:03:37;;;;;;;4.75;2.15;;;7.70;99.90;;;;;;5037943;28;20025;-79
2022/09/29 01:06:12;;;;;;;4.63;2.20;;;7.60;99.90;;;;;;5033979;28;20041;-79
2022/09/29 01:08:44;;;;;;;6.45;1.95;;;7.70;99.90;;;;;;5034237;28;20025;-78
2022/09/29 01:11:11;;;;;;;2.67;1.92;;;7.70;99.90;;;;;;5039262;28;20116;-78
2022/09/29 01:13:37;;;;;;;6.30;2.17;;;7.50;99.90;;;;;;5047465;28;20033;-78
2022/09/29 01:16:02;;;;;;;5.22;2.72;;;7.50;99.90;;;;;;5035423;28;20047;-79
2022/09/29 01:18:29;;;;;;;3.90;2.10;;;7.50;99.90;;;;;;5042988;28;20025;-78
2022/09/29 01:21:27;;;;;;;2.55;1.60;;;7.40;99.90;;;;;;5045807;28;20491;-79
2022/09/29 01:24:34;;;;;;;3.08;2.05;;;7.40;99.90;;;;;;5041845;28;20037;-79
2022/09/29 01:27:38;;;;;;;2.47;1.88;;;7.40;99.90;;;;;;5045098;28;20636;-79
2022/09/29 01:30:06;;;;;;;3.58;2.28;;;7.30;99.90;;;;;;5039925;28;20057;-79
2022/09/29 01:33:07;;;;;;;2.65;2.05;;;7.30;99.90;;;;;;5043842;28;20115;-76
2022/09/29 01:36:04;;;;;;;4.22;1.85;;;7.20;99.90;;;;;;5042902;28;20411;-76
2022/09/29 01:38:50;;;;;;;3.15;1.75;;;7.20;99.90;;;;;;5044022;28;20029;-76
2022/09/29 01:41:28;;;;;;;3.22;1.92;;;7.20;99.90;;;;;;5041871;28;20057;-76
2022/09/29 01:44:20;;;;;;;3.30;2.00;;;7.20;99.90;;;;;;5042711;28;20037;-76
2022/09/29 01:47:02;;;;;;;6.35;2.50;;;7.10;99.90;;;;;;5042138;28;20032;-77
2022/09/29 01:49:31;;;;;;;3.20;2.25;;;7.10;99.90;;;;;;5046426;28;20033;-76
2022/09/29 01:52:06;;;;;;;3.13;1.80;;;7.10;99.90;;;;;;5045985;28;20116;-77
2022/09/29 01:54:59;;;;;;;4.88;2.03;;;7.10;99.90;;;;;;5044378;28;20215;-77
2022/09/29 01:57:28;;;;;;;3.80;2.20;;;7.00;99.90;;;;;;5002606;28;20041;-77
2022/09/29 02:00:00;;;;;;;5.10;2.28;;;7.00;99.90;;;;;;5036793;28;20028;-77
2022/09/29 02:02:50;;;;;;;3.13;2.10;;;7.10;99.90;;;;;;5031486;28;20048;-76
2022/09/29 02:05:25;;;;;;;4.57;2.25;;;7.20;99.90;;;;;;5043363;28;20033;-76
2022/09/29 02:07:53;;;;;;;3.03;1.83;;;7.30;99.90;;;;;;5046012;28;20044;-76
2022/09/29 02:10:24;;;;;;;4.20;2.38;;;7.40;99.90;;;;;;5047945;28;20140;-77
2022/09/29 02:12:52;;;;;;;4.82;2.60;;;7.40;99.90;;;;;;5043663;28;20052;-76
2022/09/29 02:15:25;;;;;;;6.22;2.75;;;7.50;99.90;;;;;;5042181;28;20068;-77
2022/09/29 02:17:52;;;;;;;6.10;2.42;;;7.70;99.90;;;;;;5034952;28;20032;-76
2022/09/29 02:20:18;;;;;;;4.60;2.20;;;7.80;99.90;;;;;;5043609;28;20036;-76
2022/09/29 02:22:44;;;;;;;4.55;2.78;;;7.80;99.90;;;;;;5047144;28;20058;-77
2022/09/29 02:25:11;;;;;;;4.70;2.42;;;8.00;99.90;;;;;;5039560;28;20095;-77
2022/09/29 02:27:37;;;;;;;4.63;2.13;;;8.10;99.90;;;;;;5037641;28;20041;-76
2022/09/29 02:30:05;;;;;;;3.30;2.28;;;8.20;99.90;;;;;;5040182;28;20076;-76
2022/09/29 02:32:33;;;;;;;5.55;2.63;;;8.30;99.90;;;;;;5034427;28;20056;-76
2022/09/29 02:35:00;;;;;;;4.72;2.42;;;8.30;99.90;;;;;;5037928;28;20108;-76
2022/09/29 02:38:03;;;;;;;6.32;2.75;;;8.30;99.90;;;;;;5034835;28;20028;-76
2022/09/29 02:40:42;;;;;;;4.05;2.80;;;8.40;99.90;;;;;;5025710;28;20091;-76
2022/09/29 02:43:42;;;;;;;4.57;2.45;;;8.50;99.90;;;;;;5046217;28;20104;-76
2022/09/29 02:47:03;;;;;;;4.90;2.58;;;8.50;99.90;;;;;;5045110;28;20034;-76
2022/09/29 02:50:06;;;;;;;6.72;2.70;;;8.60;99.90;;;;;;4940392;28;20042;-76
2022/09/29 02:52:55;;;;;;;4.18;2.20;;;8.80;99.90;;;;;;5041871;28;20386;-76
2022/09/29 02:55:42;;;;;;;5.72;2.53;;;8.70;99.90;;;;;;5043678;28;20614;-76
2022/09/29 02:58:31;;;;;;;4.05;2.63;;;8.80;99.90;;;;;;5035740;28;20538;-76
2022/09/29 03:00:58;;;;;;;3.80;2.63;;;8.90;99.90;;;;;;5041216;28;20079;-76
2022/09/29 03:03:24;;;;;;;5.57;2.70;;;8.90;99.90;;;;;;5034708;28;20033;-77
2022/09/29 03:05:50;;;;;;;4.65;2.45;;;9.00;99.90;;;;;;5042131;28;20029;-77
2022/09/29 03:08:16;;;;;;;3.63;2.08;;;9.00;99.90;;;;;;5014731;28;20053;-76
2022/09/29 03:10:42;;;;;;;4.18;2.47;;;9.00;99.90;;;;;;5044239;28;20448;-75
2022/09/29 03:13:07;;;;;;;4.75;2.78;;;9.00;99.90;;;;;;5043924;28;20390;-76
2022/09/29 03:15:33;;;;;;;4.85;2.70;;;9.10;99.90;;;;;;5044149;28;20060;-76
2022/09/29 03:17:58;;;;;;;5.20;3.10;;;9.00;99.90;;;;;;5042433;28;20025;-76
2022/09/29 03:20:25;;;;;;;4.78;2.88;;;9.00;99.90;;;;;;5037473;28;20044;-75
2022/09/29 03:22:54;;;;;;;6.75;3.15;;;8.90;99.90;;;;;;5036766;28;20040;-76
2022/09/29 03:25:21;;;;;;;5.13;2.90;;;9.00;99.90;;;;;;5047712;28;20036;-74
2022/09/29 03:27:46;;;;;;;6.85;3.22;;;9.00;99.90;;;;;;5047457;28;20060;-78
2022/09/29 03:30:12;;;;;;;5.65;3.13;;;9.00;99.90;;;;;;5041538;28;20060;-78
2022/09/29 03:32:37;;;;;;;5.57;3.30;;;9.00;99.90;;;;;;5041336;28;20051;-76
2022/09/29 03:35:03;;;;;;;4.38;3.08;;;9.00;99.90;;;;;;5049077;28;20041;-75
2022/09/29 03:37:29;;;;;;;6.90;3.83;;;9.00;99.90;;;;;;5042005;28;20026;-75
2022/09/29 03:39:54;;;;;;;7.30;3.50;;;9.00;99.90;;;;;;5045902;28;20253;-76
2022/09/29 03:42:23;;;;;;;8.70;3.33;;;8.90;99.90;;;;;;5043051;28;20550;-74
2022/09/29 03:44:48;;;;;;;7.28;3.45;;;8.90;99.90;;;;;;5042043;28;20029;-76
2022/09/29 03:47:14;;;;;;;5.55;3.15;;;9.00;99.90;;;;;;5044349;28;20083;-75
2022/09/29 03:49:39;;;;;;;7.07;4.18;;;9.10;99.90;;;;;;5047841;28;20700;-76
2022/09/29 03:52:04;;;;;;;7.00;3.70;;;9.30;99.90;;;;;;5045728;28;20056;-75
2022/09/29 03:54:30;;;;;;;7.93;3.88;;;9.30;99.90;;;;;;5040444;28;20037;-76
2022/09/29 03:56:55;;;;;;;5.63;3.28;;;9.20;99.90;;;;;;5043231;28;20041;-75
2022/09/29 03:59:21;;;;;;;6.95;3.78;;;9.20;99.90;;;;;;5049915;28;20054;-75
2022/09/29 04:01:46;;;;;;;7.22;3.35;;;9.20;99.90;;;;;;5048965;28;20021;-75
2022/09/29 04:04:12;;;;;;;5.15;3.50;;;9.10;99.90;;;;;;5046679;28;20568;-75
2022/09/29 04:06:37;;;;;;;6.93;3.33;;;9.20;99.90;;;;;;5046716;28;20122;-75
2022/09/29 04:09:03;;;;;;;6.30;3.60;;;9.10;99.90;;;;;;5049438;28;20040;-76
2022/09/29 04:11:28;;;;;;;7.85;3.42;;;9.10;99.90;;;;;;5050866;28;20399;-76
2022/09/29 04:13:54;;;;;;;5.60;3.50;;;9.20;99.90;;;;;;5044303;28;20484;-77
2022/09/29 04:17:01;;;;;;;10.15;3.60;;;9.20;99.90;;;;;;5042821;28;20041;-77
2022/09/29 04:19:26;;;;;;;7.45;3.83;;;9.20;99.90;;;;;;5006505;28;20120;-77
2022/09/29 04:21:52;;;;;;;6.55;3.83;;;9.30;99.90;;;;;;5050020;28;20153;-76
2022/09/29 04:24:17;;;;;;;6.32;3.38;;;9.30;99.90;;;;;;5045768;28;20016;-77
2022/09/29 04:26:43;;;;;;;5.00;3.63;;;9.30;99.90;;;;;;5048992;28;20128;-77
2022/09/29 04:29:09;;;;;;;7.22;4.00;;;9.30;99.90;;;;;;5049186;28;20510;-77
2022/09/29 04:31:35;;;;;;;6.35;3.70;;;9.30;99.90;;;;;;5047769;28;20032;-77
2022/09/29 04:34:00;;;;;;;5.82;3.50;;;9.30;99.90;;;;;;5045728;28;20033;-77
2022/09/29 04:36:26;;;;;;;6.22;3.55;;;9.30;99.90;;;;;;5048271;28;20100;-77
2022/09/29 04:38:52;;;;;;;6.30;3.78;;;9.20;99.90;;;;;;5049540;28;20044;-77
2022/09/29 04:41:17;;;;;;;7.85;3.58;;;9.20;99.90;;;;;;5048109;28;20100;-77
2022/09/29 04:43:43;;;;;;;5.30;3.50;;;9.40;99.90;;;;;;5048773;28;20507;-77
2022/09/29 04:46:09;;;;;;;6.00;3.35;;;9.30;99.90;;;;;;5048045;28;20491;-76
2022/09/29 04:48:35;;;;;;;4.70;3.42;;;9.30;99.90;;;;;;5039108;28;20476;-77
2022/09/29 04:51:01;;;;;;;8.07;3.78;;;9.30;99.90;;;;;;5034748;28;20048;-76
2022/09/29 04:53:27;;;;;;;6.53;3.95;;;9.30;99.90;;;;;;5044085;28;20021;-76
2022/09/29 04:55:53;;;;;;;5.47;3.55;;;9.40;99.90;;;;;;5048921;28;20025;-77
2022/09/29 04:58:18;;;;;;;7.10;3.47;;;9.30;99.90;;;;;;5046238;28;20443;-77
2022/09/29 05:00:44;;;;;;;6.82;4.05;;;9.30;99.90;;;;;;5042642;28;20503;-76
2022/09/29 05:03:10;;;;;;;5.50;3.53;;;9.30;99.90;;;;;;5040912;28;20033;-77
2022/09/29 05:05:35;;;;;;;5.15;3.47;;;9.30;99.90;;;;;;5044900;28;20441;-77
2022/09/29 05:08:03;;;;;;;7.57;4.32;;;9.40;99.90;;;;;;5031766;28;20055;-77
2022/09/29 05:10:29;;;;;;;7.70;3.88;;;9.30;99.90;;;;;;5040871;28;20674;-76
2022/09/29 05:12:55;;;;;;;7.60;3.92;;;9.30;99.90;;;;;;5048693;28;20032;-77
2022/09/29 05:15:21;;;;;;;8.38;3.80;;;9.30;99.90;;;;;;5036569;28;20021;-77
2022/09/29 05:17:47;;;;;;;6.78;3.78;;;9.30;99.90;;;;;;5045427;28;20161;-77
2022/09/29 05:20:12;;;;;;;7.25;3.90;;;9.40;99.90;;;;;;5047570;28;20032;-78
2022/09/29 05:22:38;;;;;;;8.20;4.25;;;9.40;99.90;;;;;;5038629;28;20391;-77
2022/09/29 05:25:04;;;;;;;7.32;3.80;;;9.40;99.90;;;;;;5035603;28;20615;-77
2022/09/29 05:27:29;;;;;;;5.78;3.80;;;9.30;99.90;;;;;;5044507;28;20021;-77
2022/09/29 05:29:55;;;;;;;7.25;4.18;;;9.40;99.90;;;;;;5044152;28;20033;-77
2022/09/29 05:32:20;;;;;;;6.55;4.22;;;9.40;99.90;;;;;;5035600;28;20086;-76
2022/09/29 05:34:46;;;;;;;6.90;4.28;;;9.30;99.90;;;;;;5043649;28;20040;-76
2022/09/29 05:37:12;;;;;;;6.28;3.90;;;9.20;99.90;;;;;;5045670;28;20021;-76
2022/09/29 05:39:38;;;;;;;6.57;4.35;;;9.30;99.90;;;;;;5043950;28;20028;-77
2022/09/29 05:42:05;;;;;;;8.38;4.18;;;9.40;99.90;;;;;;5043531;28;20032;-77
2022/09/29 05:44:32;;;;;;;11.68;4.68;;;9.40;99.90;;;;;;5044768;28;20075;-77
2022/09/29 05:46:57;;;;;;;7.50;4.70;;;9.40;99.90;;;;;;5046545;28;20044;-76
2022/09/29 05:49:23;;;;;;;6.72;4.05;;;9.40;99.90;;;;;;5047711;28;20720;-77
2022/09/29 05:51:48;;;;;;;7.40;4.10;;;9.50;99.90;;;;;;5039991;28;20032;-76
2022/09/29 05:54:13;;;;;;;8.50;4.50;;;9.40;99.90;;;;;;5040775;28;20475;-76
2022/09/29 05:56:39;;;;;;;9.45;4.28;;;9.40;99.90;;;;;;5045793;28;20055;-78
2022/09/29 05:59:04;;;;;;;6.43;3.70;;;9.50;99.90;;;;;;5041486;28;20022;-75
2022/09/29 06:01:31;;;;;;;8.90;4.70;;;9.50;99.90;;;;;;5035155;28;20456;-74
2022/09/29 06:03:57;;;;;;;9.30;5.00;;;9.60;99.90;;;;;;5046204;28;20056;-76
2022/09/29 06:06:26;;;;;;;9.50;4.38;;;9.70;99.90;;;;;;5045329;28;20116;-76
2022/09/29 06:08:52;;;;;;;9.05;4.80;;;9.80;99.90;;;;;;5045802;28;20059;-76
2022/09/29 06:11:20;;;;;;;6.85;4.07;;;9.80;99.90;;;;;;5047319;28;20037;-75
2022/09/29 06:13:48;;;;;;;10.63;4.75;;;9.80;99.90;;;;;;5038189;28;20028;-77
2022/09/29 06:16:15;;;;;;;6.93;4.22;;;9.80;99.90;;;;;;5043834;28;20082;-76
2022/09/29 06:18:41;;;;;;;10.85;5.20;;;9.80;99.90;;;;;;5042871;28;20033;-75
2022/09/29 06:21:09;;;;;;;14.13;5.82;;;9.80;99.90;;;;;;5045626;28;20082;-74
2022/09/29 06:23:35;;;;;;;14.50;6.00;;;10.00;99.90;;;;;;5045884;28;20028;-76
2022/09/29 06:26:03;;;;;;;10.18;5.22;;;10.10;99.90;;;;;;5043613;28;20124;-75
2022/09/29 06:28:29;;;;;;;9.65;4.85;;;10.10;99.90;;;;;;5043230;28;20064;-80
2022/09/29 06:31:28;;;;;;;11.98;5.40;;;10.20;99.90;;;;;;5041996;28;21822;-74
2022/09/29 06:33:58;;;;;;;9.02;4.63;;;10.20;99.90;;;;;;5025350;28;20065;-86
2022/09/29 06:39:12;;;;;;;11.18;4.90;;;10.30;99.90;;;;;;5040355;28;20045;-77
2022/09/29 06:41:37;;;;;;;9.82;4.35;;;10.40;99.90;;;;;;5046274;28;20021;-78
2022/09/29 06:44:03;;;;;;;8.77;4.78;;;10.40;99.90;;;;;;5030986;28;20224;-77
2022/09/29 06:46:29;;;;;;;10.00;4.93;;;10.60;99.90;;;;;;5031257;28;20498;-77
2022/09/29 06:48:55;;;;;;;9.30;4.60;;;10.60;99.90;;;;;;5047465;28;20032;-77
2022/09/29 06:51:22;;;;;;;10.20;4.65;;;10.80;99.90;;;;;;5045198;28;20047;-76
2022/09/29 06:53:48;;;;;;;8.50;4.38;;;10.70;99.90;;;;;;5030121;28;20026;-79
2022/09/29 06:56:14;;;;;;;10.45;4.70;;;10.70;99.90;;;;;;5029748;28;20029;-77
2022/09/29 06:58:40;;;;;;;9.70;4.78;;;10.80;99.90;;;;;;5032917;28;20024;-77
2022/09/29 07:01:05;;;;;;;8.65;5.32;;;10.80;99.90;;;;;;5047836;28;20466;-78
2022/09/29 07:03:31;;;;;;;11.65;4.65;;;10.70;99.90;;;;;;5046137;28;20060;-77
2022/09/29 07:06:01;;;;;;;10.88;4.80;;;10.70;99.90;;;;;;5040848;28;20025;-76
2022/09/29 07:08:27;;;;;;;10.70;4.85;;;10.90;99.90;;;;;;5040058;28;20045;-77
2022/09/29 07:10:53;;;;;;;10.38;5.28;;;11.00;99.90;;;;;;5052097;28;20028;-75
2022/09/29 07:13:18;;;;;;;9.98;5.93;;;11.00;99.90;;;;;;5047617;28;20036;-76
2022/09/29 07:15:46;;;;;;;9.35;5.25;;;11.20;99.90;;;;;;5050320;28;20070;-76
2022/09/29 07:18:12;;;;;;;11.48;6.18;;;11.20;99.90;;;;;;5045306;28;20484;-76
2022/09/29 07:20:39;;;;;;;13.05;5.22;;;11.10;99.90;;;;;;5033945;28;20075;-76
2022/09/29 07:23:05;;;;;;;11.88;5.22;;;11.10;99.90;;;;;;5035734;28;20163;-76
2022/09/29 07:25:31;;;;;;;11.43;5.35;;;11.30;99.90;;;;;;5049060;28;20076;-75
2022/09/29 07:27:56;;;;;;;8.27;5.10;;;11.50;99.90;;;;;;5044362;28;20025;-72
2022/09/29 07:30:22;;;;;;;11.18;5.28;;;11.50;99.90;;;;;;5042551;28;20630;-75
2022/09/29 07:32:47;;;;;;;8.93;4.80;;;11.50;99.90;;;;;;5046938;28;20413;-75
2022/09/29 07:35:12;;;;;;;10.43;5.45;;;11.40;99.90;;;;;;5039394;28;20029;-79
2022/09/29 07:37:38;;;;;;;10.18;5.00;;;11.50;99.90;;;;;;5039804;28;20389;-79
2022/09/29 07:40:04;;;;;;;9.70;4.93;;;11.60;99.90;;;;;;5041715;28;20033;-78
2022/09/29 07:42:30;;;;;;;9.18;4.68;;;11.80;99.90;;;;;;5030739;28;20025;-80
2022/09/29 07:44:55;;;;;;;9.00;4.60;;;11.90;99.90;;;;;;5029736;28;20028;-79
2022/09/29 07:47:21;;;;;;;10.00;5.45;;;11.90;99.90;;;;;;5034070;28;20463;-80
2022/09/29 07:49:47;;;;;;;10.18;5.15;;;12.00;99.90;;;;;;5047351;28;20064;-80
2022/09/29 07:52:13;;;;;;;8.45;4.35;;;12.20;99.90;;;;;;5031072;28;20109;-79
2022/09/29 07:54:39;;;;;;;9.63;4.40;;;12.30;99.90;;;;;;5030825;28;20112;-80
2022/09/29 07:57:04;;;;;;;9.45;4.55;;;12.30;99.90;;;;;;5048240;28;20029;-80
2022/09/29 07:59:30;;;;;;;9.43;5.05;;;12.40;99.90;;;;;;5050402;28;20100;-80
2022/09/29 08:01:56;;;;;;;10.18;4.95;;;12.40;99.90;;;;;;5049450;28;20055;-81
2022/09/29 08:04:22;;;;;;;11.10;4.95;;;12.30;99.90;;;;;;5049759;28;20029;-80
2022/09/29 08:06:47;;;;;;;11.02;4.72;;;12.20;99.90;;;;;;5043653;28;20049;-79
2022/09/29 08:09:13;;;;;;;11.50;5.15;;;12.40;99.90;;;;;;5047040;28;20029;-79
2022/09/29 08:11:41;;;;;;;9.77;4.75;;;12.50;99.90;;;;;;5046483;28;20037;-80
2022/09/29 08:14:08;;;;;;;7.35;4.65;;;12.30;99.90;;;;;;5037692;28;20084;-79
2022/09/29 08:16:35;;;;;;;10.40;5.80;;;12.60;99.90;;;;;;5048966;28;20435;-80
2022/09/29 08:19:01;;;;;;;11.15;5.20;;;12.60;99.90;;;;;;5050056;28;20024;-80
2022/09/29 08:21:28;;;;;;;10.35;5.15;;;12.70;99.90;;;;;;5049684;28;20067;-80
2022/09/29 08:23:54;;;;;;;11.23;5.90;;;12.90;99.90;;;;;;5046401;28;20479;-80
2022/09/29 08:26:21;;;;;;;10.70;5.50;;;13.00;99.90;;;;;;5050330;28;20036;-78
2022/09/29 08:28:47;;;;;;;14.48;5.90;;;13.00;99.90;;;;;;5047028;28;20082;-80
2022/09/29 08:31:19;;;;;;;15.00;5.28;;;13.10;99.90;;;;;;5046789;28;20435;-79
2022/09/29 08:33:51;;;;;;;9.02;5.35;;;13.20;99.90;;;;;;5048860;28;20090;-80
2022/09/29 08:36:18;;;;;;;10.65;5.63;;;13.30;99.90;;;;;;5049697;28;20063;-78
2022/09/29 08:38:47;;;;;;;8.80;5.07;;;13.50;99.90;;;;;;5048599;28;20029;-80
2022/09/29 08:41:27;;;;;;;11.52;6.15;;;12.90;99.90;;;;;;5049594;28;20486;-80
2022/09/29 08:43:57;;;;;;;11.95;5.22;;;13.10;99.90;;;;;;5048650;28;20040;-77
2022/09/29 08:46:29;;;;;;;14.88;5.63;;;13.30;99.90;;;;;;5047729;28;20601;-79
2022/09/29 08:48:58;;;;;;;9.13;5.30;;;13.60;99.90;;;;;;5048804;28;20040;-79
2022/09/29 08:51:32;;;;;;;12.57;5.50;;;13.50;99.90;;;;;;5049364;28;20029;-79
2022/09/29 08:54:14;;;;;;;10.40;5.43;;;13.40;99.90;;;;;;5043504;28;20032;-80
2022/09/29 08:56:39;;;;;;;9.68;5.90;;;13.60;99.90;;;;;;5049717;28;20029;-80
2022/09/29 08:59:09;;;;;;;10.70;5.85;;;13.70;99.90;;;;;;5049210;28;20416;-81
2022/09/29 09:02:12;;;;;;;11.00;5.82;;;13.60;99.90;;;;;;5047442;28;20029;-80
2022/09/29 09:05:22;;;;;;;9.98;5.80;;;13.50;99.90;;;;;;5042202;28;20025;-80
2022/09/29 09:08:12;;;;;;;10.50;5.57;;;13.70;99.90;;;;;;4993625;28;20033;-79
2022/09/29 09:10:42;;;;;;;7.90;5.22;;;13.70;99.90;;;;;;5055449;28;20112;-80
2022/09/29 09:13:36;;;;;;;11.80;6.03;;;13.80;99.90;;;;;;5048544;28;20120;-79
2022/09/29 09:16:32;;;;;;;10.82;5.43;;;14.00;99.90;;;;;;5048473;28;20124;-80
2022/09/29 09:19:22;;;;;;;9.65;5.55;;;14.00;99.90;;;;;;5038684;28;20800;-80
2022/09/29 09:22:23;;;;;;;10.05;5.63;;;14.00;99.90;;;;;;5006623;28;20036;-79
2022/09/29 09:25:18;;;;;;;6.63;4.35;;;14.20;99.90;;;;;;5030478;28;20033;-79
2022/09/29 09:27:55;;;;;;;11.50;5.45;;;14.70;99.90;;;;;;5048656;28;20167;-79
2022/09/29 09:30:21;;;;;;;7.35;4.40;;;14.80;99.90;;;;;;5048651;28;20049;-77
2022/09/29 09:32:52;;;;;;;9.07;5.25;;;14.80;99.90;;;;;;5048465;28;20021;-79
2022/09/29 09:35:35;;;;;;;8.93;5.10;;;14.80;99.90;;;;;;5045070;28;20040;-80
2022/09/29 09:38:05;;;;;;;9.18;5.07;;;14.70;99.90;;;;;;5048919;28;20020;-79
2022/09/29 09:40:40;;;;;;;7.63;5.05;;;14.70;99.90;;;;;;5048497;28;20017;-79
2022/09/29 09:43:13;;;;;;;8.85;4.95;;;14.80;99.90;;;;;;5047190;28;20562;-79
2022/09/29 09:45:47;;;;;;;9.18;4.90;;;14.70;99.90;;;;;;5047403;28;20033;-78
2022/09/29 09:48:26;;;;;;;10.60;5.53;;;15.00;99.90;;;;;;5038000;28;20032;-79
2022/09/29 09:50:51;;;;;;;8.25;4.55;;;14.80;99.90;;;;;;5048307;28;20025;-79
2022/09/29 09:53:36;;;;;;;8.02;4.88;;;14.70;99.90;;;;;;5048322;28;20365;-79
2022/09/29 09:56:38;;;;;;;9.25;5.20;;;14.50;99.90;;;;;;5047743;28;20017;-79
2022/09/29 09:59:36;;;;;;;8.60;4.93;;;14.50;99.90;;;;;;5043885;28;20273;-77
2022/09/29 10:02:02;;;;;;;8.50;5.18;;;14.70;99.90;;;;;;5029645;28;20036;-80
2022/09/29 10:04:27;;;;;;;7.90;4.85;;;14.50;99.80;;;;;;5047952;28;20039;-79
2022/09/29 10:06:54;;;;;;;8.00;4.40;;;14.20;99.90;;;;;;5046871;28;20033;-80
2022/09/29 10:09:20;;;;;;;7.85;4.22;;;14.60;99.90;;;;;;5047287;28;20032;-80
2022/09/29 10:11:45;;;;;;;6.25;4.15;;;15.20;99.20;;;;;;5043921;28;20029;-81
2022/09/29 10:14:15;;;;;;;8.02;4.60;;;15.60;98.60;;;;;;5027948;28;20116;-80
2022/09/29 10:17:06;;;;;;;7.90;4.70;;;15.30;96.50;;;;;;5030599;28;20096;-80
2022/09/29 10:19:51;;;;;;;6.18;3.60;;;15.20;96.40;;;;;;5042845;28;20143;-80
2022/09/29 10:22:18;;;;;;;6.47;3.72;;;16.00;95.00;;;;;;5048140;28;20021;-80
2022/09/29 10:24:44;;;;;;;7.88;4.40;;;16.40;93.90;;;;;;5047943;28;20335;-80
2022/09/29 10:27:10;;;;;;;7.75;4.00;;;16.00;93.00;;;;;;5047589;28;20488;-80
2022/09/29 10:29:40;;;;;;;5.82;3.63;;;16.00;92.40;;;;;;5043623;28;20041;-81
2022/09/29 10:32:20;;;;;;;4.95;3.08;;;15.90;92.00;;;;;;5048523;28;20048;-80
2022/09/29 10:34:49;;;;;;;5.30;3.13;;;15.40;91.60;;;;;;5050823;28;20702;-81
2022/09/29 10:37:28;;;;;;;6.97;3.90;;;15.30;93.20;;;;;;5052008;28;20081;-80
2022/09/29 10:40:22;;;;;;;5.03;3.40;;;15.30;93.80;;;;;;5047387;28;20029;-81
2022/09/29 10:42:49;;;;;;;7.57;3.72;;;15.80;93.20;;;;;;5038357;28;20061;-81
2022/09/29 10:45:20;;;;;;;5.55;2.85;;;16.60;92.10;;;;;;5050978;28;20033;-83
2022/09/29 10:47:48;;;;;;;5.90;3.20;;;17.50;90.20;;;;;;5050590;28;20032;-80
2022/09/29 10:50:20;;;;;;;5.13;3.42;;;17.80;86.30;;;;;;5050627;28;20045;-81
2022/09/29 10:52:58;;;;;;;4.07;2.50;;;17.60;85.80;;;;;;5034937;28;20021;-80
2022/09/29 10:55:26;;;;;;;4.03;2.67;;;18.30;81.50;;;;;;5051791;28;20033;-80
2022/09/29 10:57:58;;;;;;;6.03;3.08;;;18.70;81.70;;;;;;5050408;28;20029;-80
2022/09/29 11:00:25;;;;;;;;;;;19.40;78.20;;;;;;5049563;28;20431;-81
2022/09/29 11:02:52;;;;;;;4.00;2.38;;;18.60;76.70;;;;;;5051572;28;19904;-81
2022/09/29 11:05:22;;;;;;;6.43;2.60;;;17.90;78.70;;;;;;5051400;28;20029;-81
2022/09/29 11:07:50;;;;;;;2.72;2.15;;;16.80;80.00;;;;;;5050224;28;20498;-80
2022/09/29 11:10:33;;;;;;;4.10;2.03;;;15.90;85.40;;;;;;5047092;28;20036;-81
2022/09/29 11:13:18;;;;;;;3.13;2.50;;;15.40;85.30;;;;;;5045544;28;20043;-81
2022/09/29 11:15:44;;;;;;;5.45;1.98;;;16.70;80.70;;;;;;5051284;28;20032;-80
2022/09/29 11:18:24;;;;;;;3.42;1.85;;;17.00;79.80;;;;;;5042164;28;20025;-81
2022/09/29 11:21:07;;;;;;;2.20;1.92;;;17.00;77.80;;;;;;5049882;28;20025;-80
2022/09/29 11:24:05;;;;;;;4.25;2.60;;;16.90;80.10;;;;;;5049389;28;20036;-82
2022/09/29 11:27:07;;;;;;;3.72;2.25;;;16.00;81.70;;;;;;5050344;28;20029;-81
2022/09/29 11:30:00;;;;;;;4.53;2.53;;;15.80;84.20;;;;;;5048905;28;20446;-79
2022/09/29 11:32:41;;;;;;;3.75;2.28;;;22.40;66.40;;;;;;5044035;28;20025;-80
2022/09/29 11:35:37;;;;;;;3.65;2.00;;;28.70;47.20;;;;;;5050441;28;20032;-80
2022/09/29 11:38:39;;;;;;;3.15;2.03;;;31.20;41.00;;;;;;5050585;28;20515;-80
2022/09/29 11:41:38;;;;;;;3.10;2.10;;;29.20;41.70;;;;;;5049681;28;20364;-81
2022/09/29 11:44:28;;;;;;;3.88;2.08;;;23.40;48.70;;;;;;5042563;28;20060;-81
2022/09/29 11:47:16;;;;;;;3.45;2.10;;;21.50;53.70;;;;;;5050632;28;20441;-80
2022/09/29 11:49:57;;;;;;;4.22;2.10;;;19.30;59.30;;;;;;5050734;28;20029;-81
2022/09/29 11:52:35;;;;;;;2.65;1.52;;;18.10;62.30;;;;;;5049414;28;20021;-81
2022/09/29 11:55:12;;;;;;;2.17;1.80;;;17.30;63.70;;;;;;5049343;28;20033;-79
2022/09/29 11:57:49;;;;;;;2.00;1.80;;;16.70;68.60;;;;;;5050652;28;20067;-80
2022/09/29 12:00:17;;;;;;;2.17;1.80;;;16.40;69.50;;;;;;5046424;28;20037;-79
2022/09/29 12:03:07;;;;;;;2.08;1.38;;;16.40;67.10;;;;;;5049571;28;20045;-80
2022/09/29 12:05:48;;;;;;;2.03;1.52;;;16.60;68.50;;;;;;5049300;28;20021;-79
2022/09/29 12:08:35;;;;;;;2.03;1.58;;;16.90;68.40;;;;;;5050230;28;20028;-82
2022/09/29 12:11:15;;;;;;;2.75;1.50;;;16.90;67.40;;;;;;5055592;28;20074;-81
2022/09/29 12:13:51;;;;;;;1.85;1.50;;;16.80;70.90;;;;;;5048270;28;20076;-81
2022/09/29 12:16:21;;;;;;;2.97;1.92;;;16.80;70.20;;;;;;5043967;28;20078;-81
2022/09/29 12:18:51;;;;;;;2.13;1.63;;;16.80;70.00;;;;;;5029975;28;20026;-80
2022/09/29 12:21:31;;;;;;;2.10;1.80;;;16.90;73.10;;;;;;5032010;28;20079;-80
2022/09/29 12:24:00;;;;;;;2.28;1.63;;;16.90;70.80;;;;;;5050281;28;20108;-80
2022/09/29 12:26:26;;;;;;;3.05;1.95;;;16.90;69.70;;;;;;5047341;28;20103;-81
2022/09/29 12:29:04;;;;;;;2.08;1.63;;;17.00;71.10;;;;;;5049971;28;20032;-81
2022/09/29 12:31:32;;;;;;;2.88;1.80;;;17.40;72.00;;;;;;5048004;28;20041;-81
2022/09/29 12:34:05;;;;;;;3.70;2.28;;;17.90;69.70;;;;;;5049883;28;20036;-80
2022/09/29 12:36:51;;;;;;;4.25;2.40;;;18.40;68.80;;;;;;5048163;28;20099;-80
2022/09/29 12:39:33;;;;;;;2.08;1.70;;;18.30;68.00;;;;;;5049333;28;20029;-80
2022/09/29 12:42:12;;;;;;;1.70;1.60;;;18.30;66.20;;;;;;5048479;28;20025;-80
2022/09/29 12:44:47;;;;;;;2.65;1.63;;;18.60;63.20;;;;;;5041901;28;20488;-80
2022/09/29 12:47:39;;;;;;;2.80;2.05;;;18.40;63.00;;;;;;5040759;28;20032;-80
2022/09/29 12:50:18;;;;;;;2.30;1.70;;;18.80;64.60;;;;;;5048551;28;20047;-81
2022/09/29 12:52:54;;;;;;;2.13;1.73;;;18.90;64.80;;;;;;5048266;28;20508;-81
2022/09/29 12:55:43;;;;;;;1.70;1.30;;;18.90;65.10;;;;;;5048430;28;20033;-80
2022/09/29 12:58:14;;;;;;;1.83;1.63;;;18.40;68.30;;;;;;5048067;28;20044;-81
2022/09/29 13:00:42;;;;;;;;;;;18.30;66.90;;;;;;5048794;28;20492;-80
2022/09/29 13:03:58;;;;;;;1.60;1.50;;;17.80;65.10;;;;;;5045772;28;19912;-80
2022/09/29 13:07:14;;;;;;;1.98;1.70;;;17.00;65.70;;;;;;4947037;28;20139;-80
2022/09/29 13:09:59;;;;;;;2.22;1.67;;;16.20;69.40;;;;;;5035700;28;20061;-80
2022/09/29 13:12:51;;;;;;;2.88;1.70;;;16.20;71.20;;;;;;5054143;28;20028;-81
2022/09/29 13:15:22;;;;;;;3.75;1.55;;;16.20;74.20;;;;;;5045436;28;20052;-80
2022/09/29 13:17:48;;;;;;;;;;;16.40;74.70;;;;;;5045156;28;20028;-78
2022/09/29 13:20:44;;;;;;;2.08;1.60;;;16.40;71.20;;;;;;5050447;28;19908;-79
2022/09/29 13:23:51;;;;;;;2.50;2.10;;;16.60;73.90;;;;;;5047699;28;20021;-80